sensor_id;sensor_type;location;lat;lon;timestamp;P1;durP1;ratioP1;P2;durP2;ratioP2
71715;SDS011;59568;52.128;5.434;2022-11-24T00:01:05;12.20;;;2.35;;
71715;SDS011;59568;52.128;5.434;2022-11-24T00:03:37;16.35;;;1.73;;
71715;SDS011;59568;52.128;5.434;2022-11-24T00:06:05;12.57;;;1.70;;
71715;SDS011;59568;52.128;5.434;2022-11-24T00:08:34;13.70;;;1.38;;
71715;SDS011;59568;52.128;5.434;2022-11-24T00:11:03;12.70;;;1.75;;
71715;SDS011;59568;52.128;5.434;2022-11-24T00:13:32;16.45;;;2.05;;
71715;SDS011;59568;52.128;5.434;2022-11-24T00:16:05;13.10;;;1.60;;
71715;SDS011;59568;52.128;5.434;2022-11-24T00:18:53;14.60;;;2.90;;
71715;SDS011;59568;52.128;5.434;2022-11-24T00:21:22;13.60;;;1.67;;
71715;SDS011;59568;52.128;5.434;2022-11-24T00:23:50;15.63;;;2.08;;
71715;SDS011;59568;52.128;5.434;2022-11-24T00:26:19;11.32;;;1.60;;
71715;SDS011;59568;52.128;5.434;2022-11-24T00:28:50;11.43;;;1.15;;
71715;SDS011;59568;52.128;5.434;2022-11-24T00:31:20;10.20;;;1.00;;
71715;SDS011;59568;52.128;5.434;2022-11-24T00:34:01;7.22;;;1.20;;
71715;SDS011;59568;52.128;5.434;2022-11-24T00:36:31;10.25;;;1.38;;
71715;SDS011;59568;52.128;5.434;2022-11-24T00:39:00;11.63;;;1.55;;
71715;SDS011;59568;52.128;5.434;2022-11-24T00:41:29;10.20;;;1.17;;
71715;SDS011;59568;52.128;5.434;2022-11-24T00:43:57;7.77;;;1.00;;
71715;SDS011;59568;52.128;5.434;2022-11-24T00:46:25;12.18;;;1.60;;
71715;SDS011;59568;52.128;5.434;2022-11-24T00:48:52;17.70;;;1.55;;
71715;SDS011;59568;52.128;5.434;2022-11-24T00:51:26;12.60;;;1.50;;
71715;SDS011;59568;52.128;5.434;2022-11-24T00:53:56;11.77;;;1.88;;
71715;SDS011;59568;52.128;5.434;2022-11-24T00:56:24;12.17;;;1.30;;
71715;SDS011;59568;52.128;5.434;2022-11-24T00:58:52;9.05;;;1.88;;
71715;SDS011;59568;52.128;5.434;2022-11-24T01:01:20;16.17;;;1.95;;
71715;SDS011;59568;52.128;5.434;2022-11-24T01:03:51;9.02;;;1.70;;
71715;SDS011;59568;52.128;5.434;2022-11-24T01:06:21;11.00;;;1.40;;
71715;SDS011;59568;52.128;5.434;2022-11-24T01:08:50;15.43;;;1.43;;
71715;SDS011;59568;52.128;5.434;2022-11-24T01:11:22;10.38;;;1.83;;
71715;SDS011;59568;52.128;5.434;2022-11-24T01:13:52;17.17;;;1.65;;
71715;SDS011;59568;52.128;5.434;2022-11-24T01:18:55;11.07;;;1.40;;
71715;SDS011;59568;52.128;5.434;2022-11-24T01:21:22;11.00;;;1.53;;
71715;SDS011;59568;52.128;5.434;2022-11-24T01:23:50;15.27;;;1.70;;
71715;SDS011;59568;52.128;5.434;2022-11-24T01:26:19;11.07;;;1.58;;
71715;SDS011;59568;52.128;5.434;2022-11-24T01:28:52;6.18;;;1.30;;
71715;SDS011;59568;52.128;5.434;2022-11-24T01:31:19;13.43;;;1.90;;
71715;SDS011;59568;52.128;5.434;2022-11-24T01:33:46;12.10;;;2.20;;
71715;SDS011;59568;52.128;5.434;2022-11-24T01:36:13;10.18;;;1.42;;
71715;SDS011;59568;52.128;5.434;2022-11-24T01:38:40;13.35;;;1.58;;
71715;SDS011;59568;52.128;5.434;2022-11-24T01:41:15;15.18;;;1.60;;
71715;SDS011;59568;52.128;5.434;2022-11-24T01:43:44;11.73;;;1.60;;
71715;SDS011;59568;52.128;5.434;2022-11-24T01:46:13;14.37;;;1.73;;
71715;SDS011;59568;52.128;5.434;2022-11-24T01:49:13;9.35;;;1.00;;
71715;SDS011;59568;52.128;5.434;2022-11-24T01:51:48;11.63;;;1.80;;
71715;SDS011;59568;52.128;5.434;2022-11-24T01:54:46;9.38;;;1.70;;
71715;SDS011;59568;52.128;5.434;2022-11-24T01:57:19;9.25;;;1.40;;
71715;SDS011;59568;52.128;5.434;2022-11-24T01:59:51;14.87;;;2.10;;
71715;SDS011;59568;52.128;5.434;2022-11-24T02:02:22;7.30;;;1.23;;
71715;SDS011;59568;52.128;5.434;2022-11-24T02:04:51;15.20;;;1.85;;
71715;SDS011;59568;52.128;5.434;2022-11-24T02:07:19;14.88;;;2.05;;
71715;SDS011;59568;52.128;5.434;2022-11-24T02:09:55;9.82;;;1.23;;
71715;SDS011;59568;52.128;5.434;2022-11-24T02:12:27;17.67;;;1.33;;
71715;SDS011;59568;52.128;5.434;2022-11-24T02:14:54;12.15;;;1.42;;
71715;SDS011;59568;52.128;5.434;2022-11-24T02:17:22;6.70;;;0.95;;
71715;SDS011;59568;52.128;5.434;2022-11-24T02:19:56;11.57;;;1.40;;
71715;SDS011;59568;52.128;5.434;2022-11-24T02:24:59;12.23;;;1.17;;
71715;SDS011;59568;52.128;5.434;2022-11-24T02:27:49;9.13;;;1.00;;
71715;SDS011;59568;52.128;5.434;2022-11-24T02:30:19;7.63;;;1.10;;
71715;SDS011;59568;52.128;5.434;2022-11-24T02:32:46;12.85;;;1.42;;
71715;SDS011;59568;52.128;5.434;2022-11-24T02:35:13;11.25;;;1.85;;
71715;SDS011;59568;52.128;5.434;2022-11-24T02:37:42;9.13;;;1.23;;
71715;SDS011;59568;52.128;5.434;2022-11-24T02:40:09;9.65;;;1.30;;
71715;SDS011;59568;52.128;5.434;2022-11-24T02:42:38;9.73;;;0.85;;
71715;SDS011;59568;52.128;5.434;2022-11-24T02:45:09;7.30;;;0.90;;
71715;SDS011;59568;52.128;5.434;2022-11-24T02:47:37;13.48;;;0.77;;
71715;SDS011;59568;52.128;5.434;2022-11-24T02:50:04;5.17;;;0.63;;
71715;SDS011;59568;52.128;5.434;2022-11-24T02:52:32;15.65;;;0.90;;
71715;SDS011;59568;52.128;5.434;2022-11-24T02:54:59;8.75;;;0.68;;
71715;SDS011;59568;52.128;5.434;2022-11-24T02:57:26;7.07;;;0.82;;
71715;SDS011;59568;52.128;5.434;2022-11-24T02:59:53;3.97;;;0.73;;
71715;SDS011;59568;52.128;5.434;2022-11-24T03:02:20;12.57;;;0.97;;
71715;SDS011;59568;52.128;5.434;2022-11-24T03:04:50;7.15;;;0.88;;
71715;SDS011;59568;52.128;5.434;2022-11-24T03:07:16;12.00;;;1.25;;
71715;SDS011;59568;52.128;5.434;2022-11-24T03:09:44;9.63;;;0.90;;
71715;SDS011;59568;52.128;5.434;2022-11-24T03:12:11;11.30;;;1.00;;
71715;SDS011;59568;52.128;5.434;2022-11-24T03:14:38;10.37;;;1.00;;
71715;SDS011;59568;52.128;5.434;2022-11-24T03:17:05;5.15;;;1.05;;
71715;SDS011;59568;52.128;5.434;2022-11-24T03:19:32;11.40;;;1.15;;
71715;SDS011;59568;52.128;5.434;2022-11-24T03:21:59;9.10;;;0.70;;
71715;SDS011;59568;52.128;5.434;2022-11-24T03:24:26;8.07;;;1.27;;
71715;SDS011;59568;52.128;5.434;2022-11-24T03:26:53;10.27;;;1.03;;
71715;SDS011;59568;52.128;5.434;2022-11-24T03:29:20;11.10;;;1.80;;
71715;SDS011;59568;52.128;5.434;2022-11-24T03:31:48;7.85;;;0.90;;
71715;SDS011;59568;52.128;5.434;2022-11-24T03:34:16;7.75;;;0.90;;
71715;SDS011;59568;52.128;5.434;2022-11-24T03:36:43;8.90;;;1.00;;
71715;SDS011;59568;52.128;5.434;2022-11-24T03:39:10;8.60;;;0.97;;
71715;SDS011;59568;52.128;5.434;2022-11-24T03:41:37;6.85;;;0.80;;
71715;SDS011;59568;52.128;5.434;2022-11-24T03:44:04;8.10;;;1.00;;
71715;SDS011;59568;52.128;5.434;2022-11-24T03:46:31;11.52;;;1.77;;
71715;SDS011;59568;52.128;5.434;2022-11-24T03:48:58;10.13;;;1.60;;
71715;SDS011;59568;52.128;5.434;2022-11-24T03:51:25;10.23;;;1.13;;
71715;SDS011;59568;52.128;5.434;2022-11-24T03:53:52;9.23;;;1.00;;
71715;SDS011;59568;52.128;5.434;2022-11-24T03:56:19;14.98;;;1.75;;
71715;SDS011;59568;52.128;5.434;2022-11-24T03:58:46;11.65;;;1.10;;
71715;SDS011;59568;52.128;5.434;2022-11-24T04:01:13;8.15;;;1.42;;
71715;SDS011;59568;52.128;5.434;2022-11-24T04:03:40;10.90;;;1.20;;
71715;SDS011;59568;52.128;5.434;2022-11-24T04:06:07;8.75;;;1.02;;
71715;SDS011;59568;52.128;5.434;2022-11-24T04:08:34;12.23;;;1.00;;
71715;SDS011;59568;52.128;5.434;2022-11-24T04:11:01;10.60;;;1.48;;
71715;SDS011;59568;52.128;5.434;2022-11-24T04:13:28;12.13;;;1.55;;
71715;SDS011;59568;52.128;5.434;2022-11-24T04:15:55;11.40;;;1.47;;
71715;SDS011;59568;52.128;5.434;2022-11-24T04:18:22;12.32;;;1.15;;
71715;SDS011;59568;52.128;5.434;2022-11-24T04:20:49;12.48;;;1.30;;
71715;SDS011;59568;52.128;5.434;2022-11-24T04:23:17;11.95;;;0.93;;
71715;SDS011;59568;52.128;5.434;2022-11-24T04:25:44;11.70;;;1.13;;
71715;SDS011;59568;52.128;5.434;2022-11-24T04:28:11;12.37;;;1.43;;
71715;SDS011;59568;52.128;5.434;2022-11-24T04:30:38;5.03;;;0.95;;
71715;SDS011;59568;52.128;5.434;2022-11-24T04:33:10;4.50;;;0.63;;
71715;SDS011;59568;52.128;5.434;2022-11-24T04:35:37;7.72;;;1.17;;
71715;SDS011;59568;52.128;5.434;2022-11-24T04:38:04;11.30;;;0.95;;
71715;SDS011;59568;52.128;5.434;2022-11-24T04:40:31;16.53;;;1.53;;
71715;SDS011;59568;52.128;5.434;2022-11-24T04:42:58;8.25;;;1.15;;
71715;SDS011;59568;52.128;5.434;2022-11-24T04:45:24;9.80;;;1.08;;
71715;SDS011;59568;52.128;5.434;2022-11-24T04:47:51;11.65;;;1.33;;
71715;SDS011;59568;52.128;5.434;2022-11-24T04:50:18;10.35;;;1.20;;
71715;SDS011;59568;52.128;5.434;2022-11-24T04:52:46;6.90;;;0.70;;
71715;SDS011;59568;52.128;5.434;2022-11-24T04:55:13;7.32;;;1.30;;
71715;SDS011;59568;52.128;5.434;2022-11-24T04:57:39;10.57;;;1.50;;
71715;SDS011;59568;52.128;5.434;2022-11-24T05:00:06;8.10;;;1.40;;
71715;SDS011;59568;52.128;5.434;2022-11-24T05:02:34;10.98;;;1.65;;
71715;SDS011;59568;52.128;5.434;2022-11-24T05:05:04;7.43;;;1.30;;
71715;SDS011;59568;52.128;5.434;2022-11-24T05:07:31;8.77;;;1.25;;
71715;SDS011;59568;52.128;5.434;2022-11-24T05:09:58;5.45;;;1.77;;
71715;SDS011;59568;52.128;5.434;2022-11-24T05:12:44;12.00;;;2.55;;
71715;SDS011;59568;52.128;5.434;2022-11-24T05:15:16;6.93;;;1.45;;
71715;SDS011;59568;52.128;5.434;2022-11-24T05:17:43;6.53;;;1.23;;
71715;SDS011;59568;52.128;5.434;2022-11-24T05:20:10;10.23;;;1.40;;
71715;SDS011;59568;52.128;5.434;2022-11-24T05:22:37;4.85;;;1.10;;
71715;SDS011;59568;52.128;5.434;2022-11-24T05:25:04;2.28;;;0.70;;
71715;SDS011;59568;52.128;5.434;2022-11-24T05:27:31;7.85;;;1.08;;
71715;SDS011;59568;52.128;5.434;2022-11-24T05:29:57;2.77;;;0.40;;
71715;SDS011;59568;52.128;5.434;2022-11-24T05:32:24;3.70;;;0.70;;
71715;SDS011;59568;52.128;5.434;2022-11-24T05:34:51;6.07;;;0.70;;
71715;SDS011;59568;52.128;5.434;2022-11-24T05:37:20;9.23;;;0.82;;
71715;SDS011;59568;52.128;5.434;2022-11-24T05:39:47;5.10;;;0.88;;
71715;SDS011;59568;52.128;5.434;2022-11-24T05:42:13;4.17;;;0.80;;
71715;SDS011;59568;52.128;5.434;2022-11-24T05:44:59;3.78;;;1.02;;
71715;SDS011;59568;52.128;5.434;2022-11-24T05:47:26;2.63;;;0.32;;
71715;SDS011;59568;52.128;5.434;2022-11-24T05:49:52;4.28;;;0.65;;
71715;SDS011;59568;52.128;5.434;2022-11-24T05:52:19;6.80;;;0.63;;
71715;SDS011;59568;52.128;5.434;2022-11-24T05:54:46;3.97;;;0.87;;
71715;SDS011;59568;52.128;5.434;2022-11-24T05:57:15;2.90;;;0.40;;
71715;SDS011;59568;52.128;5.434;2022-11-24T05:59:42;3.83;;;0.50;;
71715;SDS011;59568;52.128;5.434;2022-11-24T06:02:09;2.20;;;0.40;;
71715;SDS011;59568;52.128;5.434;2022-11-24T06:04:36;4.93;;;0.60;;
71715;SDS011;59568;52.128;5.434;2022-11-24T06:07:05;2.60;;;0.70;;
71715;SDS011;59568;52.128;5.434;2022-11-24T06:09:35;3.20;;;0.50;;
71715;SDS011;59568;52.128;5.434;2022-11-24T06:12:03;4.57;;;0.63;;
71715;SDS011;59568;52.128;5.434;2022-11-24T06:14:32;4.10;;;0.82;;
71715;SDS011;59568;52.128;5.434;2022-11-24T06:17:00;6.22;;;1.10;;
71715;SDS011;59568;52.128;5.434;2022-11-24T06:19:27;4.00;;;0.53;;
71715;SDS011;59568;52.128;5.434;2022-11-24T06:21:54;4.63;;;0.60;;
71715;SDS011;59568;52.128;5.434;2022-11-24T06:24:21;4.85;;;0.60;;
71715;SDS011;59568;52.128;5.434;2022-11-24T06:26:48;3.63;;;0.70;;
71715;SDS011;59568;52.128;5.434;2022-11-24T06:29:15;2.97;;;0.68;;
71715;SDS011;59568;52.128;5.434;2022-11-24T06:31:42;2.93;;;0.40;;
71715;SDS011;59568;52.128;5.434;2022-11-24T06:34:09;4.30;;;0.55;;
71715;SDS011;59568;52.128;5.434;2022-11-24T06:36:38;2.30;;;0.55;;
71715;SDS011;59568;52.128;5.434;2022-11-24T06:39:05;1.98;;;0.50;;
71715;SDS011;59568;52.128;5.434;2022-11-24T06:41:32;4.50;;;0.73;;
71715;SDS011;59568;52.128;5.434;2022-11-24T06:44:01;3.23;;;0.50;;
71715;SDS011;59568;52.128;5.434;2022-11-24T06:46:29;3.95;;;0.70;;
71715;SDS011;59568;52.128;5.434;2022-11-24T06:48:56;3.00;;;0.77;;
71715;SDS011;59568;52.128;5.434;2022-11-24T06:51:25;2.22;;;0.70;;
71715;SDS011;59568;52.128;5.434;2022-11-24T06:53:52;4.80;;;0.90;;
71715;SDS011;59568;52.128;5.434;2022-11-24T06:56:19;2.97;;;1.03;;
71715;SDS011;59568;52.128;5.434;2022-11-24T06:58:48;4.50;;;1.60;;
71715;SDS011;59568;52.128;5.434;2022-11-24T07:01:16;4.82;;;1.60;;
71715;SDS011;59568;52.128;5.434;2022-11-24T07:03:45;6.65;;;1.60;;
71715;SDS011;59568;52.128;5.434;2022-11-24T07:06:13;6.30;;;1.90;;
71715;SDS011;59568;52.128;5.434;2022-11-24T07:08:41;4.87;;;2.50;;
71715;SDS011;59568;52.128;5.434;2022-11-24T07:11:09;7.93;;;2.70;;
71715;SDS011;59568;52.128;5.434;2022-11-24T07:13:38;7.07;;;2.58;;
71715;SDS011;59568;52.128;5.434;2022-11-24T07:16:15;5.22;;;2.35;;
71715;SDS011;59568;52.128;5.434;2022-11-24T07:18:45;5.97;;;2.80;;
71715;SDS011;59568;52.128;5.434;2022-11-24T07:21:13;6.30;;;3.27;;
71715;SDS011;59568;52.128;5.434;2022-11-24T07:23:41;7.45;;;3.30;;
71715;SDS011;59568;52.128;5.434;2022-11-24T07:26:08;10.82;;;3.60;;
71715;SDS011;59568;52.128;5.434;2022-11-24T07:28:36;9.05;;;3.53;;
71715;SDS011;59568;52.128;5.434;2022-11-24T07:31:10;6.13;;;3.70;;
71715;SDS011;59568;52.128;5.434;2022-11-24T07:33:39;8.93;;;3.60;;
71715;SDS011;59568;52.128;5.434;2022-11-24T07:36:06;8.77;;;4.00;;
71715;SDS011;59568;52.128;5.434;2022-11-24T07:38:34;6.95;;;3.45;;
71715;SDS011;59568;52.128;5.434;2022-11-24T07:41:02;7.55;;;3.53;;
71715;SDS011;59568;52.128;5.434;2022-11-24T07:43:32;7.03;;;3.50;;
71715;SDS011;59568;52.128;5.434;2022-11-24T07:46:00;8.97;;;3.80;;
71715;SDS011;59568;52.128;5.434;2022-11-24T07:48:28;9.13;;;3.80;;
71715;SDS011;59568;52.128;5.434;2022-11-24T07:50:57;7.55;;;3.60;;
71715;SDS011;59568;52.128;5.434;2022-11-24T07:53:25;8.20;;;3.50;;
71715;SDS011;59568;52.128;5.434;2022-11-24T07:55:59;7.53;;;3.10;;
71715;SDS011;59568;52.128;5.434;2022-11-24T07:58:27;8.33;;;3.77;;
71715;SDS011;59568;52.128;5.434;2022-11-24T08:00:58;10.18;;;3.22;;
71715;SDS011;59568;52.128;5.434;2022-11-24T08:03:26;7.88;;;3.10;;
71715;SDS011;59568;52.128;5.434;2022-11-24T08:05:56;5.93;;;2.85;;
71715;SDS011;59568;52.128;5.434;2022-11-24T08:08:44;5.35;;;3.08;;
71715;SDS011;59568;52.128;5.434;2022-11-24T08:11:13;9.60;;;3.80;;
71715;SDS011;59568;52.128;5.434;2022-11-24T08:13:42;6.40;;;3.42;;
71715;SDS011;59568;52.128;5.434;2022-11-24T08:16:10;7.45;;;2.65;;
71715;SDS011;59568;52.128;5.434;2022-11-24T08:18:39;7.53;;;2.83;;
71715;SDS011;59568;52.128;5.434;2022-11-24T08:21:07;8.90;;;3.13;;
71715;SDS011;59568;52.128;5.434;2022-11-24T08:23:38;7.80;;;3.10;;
71715;SDS011;59568;52.128;5.434;2022-11-24T08:26:06;6.18;;;2.78;;
71715;SDS011;59568;52.128;5.434;2022-11-24T08:28:35;6.85;;;3.42;;
71715;SDS011;59568;52.128;5.434;2022-11-24T08:31:04;7.80;;;3.00;;
71715;SDS011;59568;52.128;5.434;2022-11-24T08:33:33;10.98;;;3.20;;
71715;SDS011;59568;52.128;5.434;2022-11-24T08:36:06;7.37;;;2.90;;
71715;SDS011;59568;52.128;5.434;2022-11-24T08:38:35;11.35;;;3.22;;
71715;SDS011;59568;52.128;5.434;2022-11-24T08:41:03;9.02;;;3.13;;
71715;SDS011;59568;52.128;5.434;2022-11-24T08:43:32;6.88;;;3.40;;
71715;SDS011;59568;52.128;5.434;2022-11-24T08:46:03;10.38;;;3.70;;
71715;SDS011;59568;52.128;5.434;2022-11-24T08:48:32;10.03;;;3.40;;
71715;SDS011;59568;52.128;5.434;2022-11-24T08:51:04;8.13;;;2.80;;
71715;SDS011;59568;52.128;5.434;2022-11-24T08:53:37;7.38;;;3.17;;
71715;SDS011;59568;52.128;5.434;2022-11-24T08:56:05;6.85;;;2.72;;
71715;SDS011;59568;52.128;5.434;2022-11-24T08:58:33;7.40;;;2.88;;
71715;SDS011;59568;52.128;5.434;2022-11-24T09:01:04;8.13;;;2.57;;
71715;SDS011;59568;52.128;5.434;2022-11-24T09:03:32;8.68;;;2.88;;
71715;SDS011;59568;52.128;5.434;2022-11-24T09:06:00;7.55;;;2.45;;
71715;SDS011;59568;52.128;5.434;2022-11-24T09:08:28;8.75;;;2.90;;
71715;SDS011;59568;52.128;5.434;2022-11-24T09:11:03;11.30;;;2.92;;
71715;SDS011;59568;52.128;5.434;2022-11-24T09:13:35;11.17;;;2.70;;
71715;SDS011;59568;52.128;5.434;2022-11-24T09:16:04;5.70;;;2.45;;
71715;SDS011;59568;52.128;5.434;2022-11-24T09:18:35;6.90;;;2.58;;
71715;SDS011;59568;52.128;5.434;2022-11-24T09:21:16;5.95;;;1.90;;
71715;SDS011;59568;52.128;5.434;2022-11-24T09:23:46;11.75;;;2.30;;
71715;SDS011;59568;52.128;5.434;2022-11-24T09:26:15;9.80;;;2.33;;
71715;SDS011;59568;52.128;5.434;2022-11-24T09:28:47;7.30;;;2.22;;
71715;SDS011;59568;52.128;5.434;2022-11-24T09:31:15;5.60;;;1.70;;
71715;SDS011;59568;52.128;5.434;2022-11-24T09:33:43;10.00;;;1.95;;
71715;SDS011;59568;52.128;5.434;2022-11-24T09:36:12;5.18;;;2.00;;
71715;SDS011;59568;52.128;5.434;2022-11-24T09:38:40;8.50;;;2.20;;
71715;SDS011;59568;52.128;5.434;2022-11-24T09:48:54;5.93;;;1.73;;
71715;SDS011;59568;52.128;5.434;2022-11-24T09:51:27;9.17;;;2.17;;
71715;SDS011;59568;52.128;5.434;2022-11-24T09:53:59;10.48;;;1.60;;
71715;SDS011;59568;52.128;5.434;2022-11-24T09:56:32;10.70;;;1.15;;
71715;SDS011;59568;52.128;5.434;2022-11-24T09:59:04;9.25;;;1.50;;
71715;SDS011;59568;52.128;5.434;2022-11-24T10:01:36;15.63;;;2.95;;
71715;SDS011;59568;52.128;5.434;2022-11-24T10:06:57;4.82;;;1.40;;
71715;SDS011;59568;52.128;5.434;2022-11-24T10:09:42;10.27;;;1.42;;
71715;SDS011;59568;52.128;5.434;2022-11-24T10:12:33;5.38;;;1.15;;
71715;SDS011;59568;52.128;5.434;2022-11-24T10:24:15;10.35;;;1.90;;
71715;SDS011;59568;52.128;5.434;2022-11-24T10:26:34;8.30;;;1.38;;
71715;SDS011;59568;52.128;5.434;2022-11-24T10:31:56;8.67;;;1.17;;
71715;SDS011;59568;52.128;5.434;2022-11-24T10:34:25;7.13;;;1.00;;
71715;SDS011;59568;52.128;5.434;2022-11-24T10:37:04;6.10;;;0.85;;
71715;SDS011;59568;52.128;5.434;2022-11-24T10:44:41;7.83;;;1.10;;
71715;SDS011;59568;52.128;5.434;2022-11-24T10:47:13;9.55;;;1.98;;
71715;SDS011;59568;52.128;5.434;2022-11-24T10:50:30;8.38;;;1.30;;
71715;SDS011;59568;52.128;5.434;2022-11-24T10:58:24;9.23;;;1.50;;
71715;SDS011;59568;52.128;5.434;2022-11-24T11:03:45;8.48;;;1.40;;
71715;SDS011;59568;52.128;5.434;2022-11-24T11:06:26;7.00;;;1.45;;
71715;SDS011;59568;52.128;5.434;2022-11-24T11:11:37;5.03;;;0.97;;
71715;SDS011;59568;52.128;5.434;2022-11-24T11:14:05;10.55;;;1.65;;
71715;SDS011;59568;52.128;5.434;2022-11-24T11:16:51;10.65;;;1.60;;
71715;SDS011;59568;52.128;5.434;2022-11-24T11:22:20;5.88;;;1.70;;
71715;SDS011;59568;52.128;5.434;2022-11-24T11:25:04;11.03;;;1.03;;
71715;SDS011;59568;52.128;5.434;2022-11-24T11:27:43;12.50;;;1.50;;
71715;SDS011;59568;52.128;5.434;2022-11-24T11:33:19;12.70;;;1.23;;
71715;SDS011;59568;52.128;5.434;2022-11-24T11:36:09;9.70;;;1.13;;
71715;SDS011;59568;52.128;5.434;2022-11-24T11:38:39;7.83;;;1.60;;
71715;SDS011;59568;52.128;5.434;2022-11-24T11:41:18;9.43;;;1.58;;
71715;SDS011;59568;52.128;5.434;2022-11-24T11:43:52;10.70;;;1.23;;
71715;SDS011;59568;52.128;5.434;2022-11-24T11:46:30;12.07;;;1.73;;
71715;SDS011;59568;52.128;5.434;2022-11-24T11:48:59;9.68;;;1.42;;
71715;SDS011;59568;52.128;5.434;2022-11-24T11:57:09;9.55;;;1.33;;
71715;SDS011;59568;52.128;5.434;2022-11-24T12:13:51;12.45;;;1.17;;
71715;SDS011;59568;52.128;5.434;2022-11-24T12:16:38;9.38;;;1.63;;
71715;SDS011;59568;52.128;5.434;2022-11-24T12:24:52;10.65;;;1.50;;
71715;SDS011;59568;52.128;5.434;2022-11-24T12:30:16;13.50;;;1.20;;
71715;SDS011;59568;52.128;5.434;2022-11-24T12:36:00;11.30;;;1.33;;
71715;SDS011;59568;52.128;5.434;2022-11-24T12:41:23;13.05;;;1.23;;
71715;SDS011;59568;52.128;5.434;2022-11-24T12:44:16;8.32;;;1.30;;
71715;SDS011;59568;52.128;5.434;2022-11-24T12:52:43;9.93;;;0.88;;
71715;SDS011;59568;52.128;5.434;2022-11-24T12:55:22;8.73;;;1.50;;
71715;SDS011;59568;52.128;5.434;2022-11-24T12:57:54;12.88;;;1.50;;
71715;SDS011;59568;52.128;5.434;2022-11-24T13:06:55;10.70;;;1.70;;
71715;SDS011;59568;52.128;5.434;2022-11-24T13:09:25;10.90;;;1.33;;
71715;SDS011;59568;52.128;5.434;2022-11-24T13:11:52;11.90;;;1.10;;
71715;SDS011;59568;52.128;5.434;2022-11-24T13:14:35;10.87;;;1.20;;
71715;SDS011;59568;52.128;5.434;2022-11-24T13:17:21;9.82;;;1.20;;
71715;SDS011;59568;52.128;5.434;2022-11-24T13:20:19;11.20;;;2.00;;
71715;SDS011;59568;52.128;5.434;2022-11-24T13:23:02;12.30;;;1.20;;
71715;SDS011;59568;52.128;5.434;2022-11-24T13:25:33;13.18;;;2.60;;
71715;SDS011;59568;52.128;5.434;2022-11-24T13:28:02;14.17;;;1.53;;
71715;SDS011;59568;52.128;5.434;2022-11-24T13:32:59;9.50;;;1.48;;
71715;SDS011;59568;52.128;5.434;2022-11-24T13:35:29;8.52;;;1.42;;
71715;SDS011;59568;52.128;5.434;2022-11-24T13:37:56;8.90;;;1.08;;
71715;SDS011;59568;52.128;5.434;2022-11-24T13:54:01;10.33;;;1.50;;
71715;SDS011;59568;52.128;5.434;2022-11-24T14:01:19;8.02;;;0.85;;
71715;SDS011;59568;52.128;5.434;2022-11-24T14:07:10;11.33;;;1.20;;
71715;SDS011;59568;52.128;5.434;2022-11-24T14:12:20;9.23;;;1.67;;
71715;SDS011;59568;52.128;5.434;2022-11-24T14:14:52;12.52;;;1.20;;
71715;SDS011;59568;52.128;5.434;2022-11-24T14:17:23;11.65;;;1.15;;
71715;SDS011;59568;52.128;5.434;2022-11-24T14:19:54;15.80;;;1.83;;
71715;SDS011;59568;52.128;5.434;2022-11-24T14:22:23;12.02;;;1.80;;
71715;SDS011;59568;52.128;5.434;2022-11-24T14:24:58;7.50;;;1.00;;
71715;SDS011;59568;52.128;5.434;2022-11-24T14:27:36;8.55;;;1.35;;
71715;SDS011;59568;52.128;5.434;2022-11-24T14:30:16;9.75;;;1.02;;
71715;SDS011;59568;52.128;5.434;2022-11-24T14:32:56;9.93;;;0.97;;
71715;SDS011;59568;52.128;5.434;2022-11-24T14:37:52;9.90;;;1.20;;
71715;SDS011;59568;52.128;5.434;2022-11-24T14:43:30;9.38;;;1.17;;
71715;SDS011;59568;52.128;5.434;2022-11-24T14:45:58;8.23;;;1.40;;
71715;SDS011;59568;52.128;5.434;2022-11-24T14:48:29;7.53;;;1.05;;
71715;SDS011;59568;52.128;5.434;2022-11-24T14:51:05;14.38;;;1.42;;
71715;SDS011;59568;52.128;5.434;2022-11-24T14:53:42;7.43;;;0.70;;
71715;SDS011;59568;52.128;5.434;2022-11-24T14:56:22;10.20;;;0.70;;
71715;SDS011;59568;52.128;5.434;2022-11-24T14:59:00;8.67;;;0.97;;
71715;SDS011;59568;52.128;5.434;2022-11-24T15:01:29;8.02;;;0.77;;
71715;SDS011;59568;52.128;5.434;2022-11-24T15:12:15;8.90;;;1.00;;
71715;SDS011;59568;52.128;5.434;2022-11-24T15:14:49;8.18;;;1.20;;
71715;SDS011;59568;52.128;5.434;2022-11-24T15:17:18;14.00;;;1.40;;
71715;SDS011;59568;52.128;5.434;2022-11-24T15:19:53;9.65;;;0.90;;
71715;SDS011;59568;52.128;5.434;2022-11-24T15:22:36;8.90;;;0.93;;
71715;SDS011;59568;52.128;5.434;2022-11-24T15:27:55;9.10;;;0.68;;
71715;SDS011;59568;52.128;5.434;2022-11-24T15:30:22;5.85;;;1.02;;
71715;SDS011;59568;52.128;5.434;2022-11-24T15:32:54;6.53;;;0.52;;
71715;SDS011;59568;52.128;5.434;2022-11-24T15:35:23;9.05;;;1.23;;
71715;SDS011;59568;52.128;5.434;2022-11-24T15:37:51;9.27;;;1.20;;
71715;SDS011;59568;52.128;5.434;2022-11-24T15:40:18;7.60;;;1.05;;
71715;SDS011;59568;52.128;5.434;2022-11-24T15:42:52;10.82;;;0.88;;
71715;SDS011;59568;52.128;5.434;2022-11-24T15:45:21;6.93;;;1.65;;
71715;SDS011;59568;52.128;5.434;2022-11-24T15:47:50;9.68;;;0.95;;
71715;SDS011;59568;52.128;5.434;2022-11-24T15:50:17;7.57;;;1.27;;
71715;SDS011;59568;52.128;5.434;2022-11-24T15:52:45;7.38;;;1.02;;
71715;SDS011;59568;52.128;5.434;2022-11-24T15:55:16;14.07;;;1.13;;
71715;SDS011;59568;52.128;5.434;2022-11-24T15:57:45;6.80;;;1.38;;
71715;SDS011;59568;52.128;5.434;2022-11-24T16:00:16;10.23;;;1.23;;
71715;SDS011;59568;52.128;5.434;2022-11-24T16:02:45;7.20;;;0.90;;
71715;SDS011;59568;52.128;5.434;2022-11-24T16:05:12;14.10;;;1.77;;
71715;SDS011;59568;52.128;5.434;2022-11-24T16:07:40;11.57;;;1.48;;
71715;SDS011;59568;52.128;5.434;2022-11-24T16:10:17;9.00;;;1.10;;
71715;SDS011;59568;52.128;5.434;2022-11-24T16:12:50;13.38;;;1.17;;
71715;SDS011;59568;52.128;5.434;2022-11-24T16:15:17;5.67;;;1.00;;
71715;SDS011;59568;52.128;5.434;2022-11-24T16:17:44;6.60;;;0.90;;
71715;SDS011;59568;52.128;5.434;2022-11-24T16:20:11;7.43;;;0.93;;
71715;SDS011;59568;52.128;5.434;2022-11-24T16:22:38;8.57;;;1.58;;
71715;SDS011;59568;52.128;5.434;2022-11-24T16:25:05;11.13;;;1.20;;
71715;SDS011;59568;52.128;5.434;2022-11-24T16:27:33;8.90;;;0.90;;
71715;SDS011;59568;52.128;5.434;2022-11-24T16:30:00;11.13;;;1.42;;
71715;SDS011;59568;52.128;5.434;2022-11-24T16:32:27;16.40;;;1.95;;
71715;SDS011;59568;52.128;5.434;2022-11-24T16:34:54;8.32;;;0.82;;
71715;SDS011;59568;52.128;5.434;2022-11-24T16:37:21;15.65;;;1.15;;
71715;SDS011;59568;52.128;5.434;2022-11-24T16:39:48;5.00;;;1.10;;
71715;SDS011;59568;52.128;5.434;2022-11-24T16:42:16;6.95;;;0.80;;
71715;SDS011;59568;52.128;5.434;2022-11-24T16:44:43;7.22;;;1.83;;
71715;SDS011;59568;52.128;5.434;2022-11-24T16:47:10;6.75;;;1.10;;
71715;SDS011;59568;52.128;5.434;2022-11-24T16:49:38;10.27;;;1.30;;
71715;SDS011;59568;52.128;5.434;2022-11-24T16:52:05;8.70;;;1.83;;
71715;SDS011;59568;52.128;5.434;2022-11-24T16:54:33;12.05;;;1.30;;
71715;SDS011;59568;52.128;5.434;2022-11-24T16:57:02;8.38;;;1.02;;
71715;SDS011;59568;52.128;5.434;2022-11-24T16:59:29;10.95;;;1.00;;
71715;SDS011;59568;52.128;5.434;2022-11-24T17:01:56;7.15;;;1.58;;
71715;SDS011;59568;52.128;5.434;2022-11-24T17:04:24;9.90;;;1.17;;
71715;SDS011;59568;52.128;5.434;2022-11-24T17:06:51;6.55;;;1.40;;
71715;SDS011;59568;52.128;5.434;2022-11-24T17:09:17;11.73;;;1.42;;
71715;SDS011;59568;52.128;5.434;2022-11-24T17:11:44;7.85;;;1.80;;
71715;SDS011;59568;52.128;5.434;2022-11-24T17:14:11;8.27;;;1.55;;
71715;SDS011;59568;52.128;5.434;2022-11-24T17:16:40;9.63;;;1.47;;
71715;SDS011;59568;52.128;5.434;2022-11-24T17:19:07;11.65;;;1.70;;
71715;SDS011;59568;52.128;5.434;2022-11-24T17:21:34;9.50;;;2.40;;